sensor_id;sensor_type;location;lat;lon;timestamp;P1;durP1;ratioP1;P2;durP2;ratioP2
39524;SDS011;25203;50.754;6.978;2023-04-06T00:00:25;25.50;;;16.23;;
39524;SDS011;25203;50.754;6.978;2023-04-06T00:02:26;24.23;;;14.10;;
39524;SDS011;25203;50.754;6.978;2023-04-06T00:04:26;22.08;;;14.40;;
39524;SDS011;25203;50.754;6.978;2023-04-06T00:06:27;25.88;;;16.35;;
39524;SDS011;25203;50.754;6.978;2023-04-06T00:08:28;23.52;;;14.30;;
39524;SDS011;25203;50.754;6.978;2023-04-06T00:10:29;21.88;;;14.10;;
39524;SDS011;25203;50.754;6.978;2023-04-06T00:12:30;20.10;;;13.18;;
39524;SDS011;25203;50.754;6.978;2023-04-06T00:14:31;24.15;;;13.25;;
39524;SDS011;25203;50.754;6.978;2023-04-06T00:16:31;28.90;;;14.52;;
39524;SDS011;25203;50.754;6.978;2023-04-06T00:18:32;21.05;;;13.63;;
39524;SDS011;25203;50.754;6.978;2023-04-06T00:20:33;24.20;;;16.05;;
39524;SDS011;25203;50.754;6.978;2023-04-06T00:22:33;18.30;;;13.30;;
39524;SDS011;25203;50.754;6.978;2023-04-06T00:24:34;23.85;;;13.57;;
39524;SDS011;25203;50.754;6.978;2023-04-06T00:26:35;27.23;;;13.95;;
39524;SDS011;25203;50.754;6.978;2023-04-06T00:28:36;25.55;;;13.57;;
39524;SDS011;25203;50.754;6.978;2023-04-06T00:30:37;22.05;;;13.70;;
39524;SDS011;25203;50.754;6.978;2023-04-06T00:32:38;20.00;;;12.57;;
39524;SDS011;25203;50.754;6.978;2023-04-06T00:34:38;23.02;;;13.88;;
39524;SDS011;25203;50.754;6.978;2023-04-06T00:36:39;21.25;;;14.45;;
39524;SDS011;25203;50.754;6.978;2023-04-06T00:38:40;22.70;;;13.32;;
39524;SDS011;25203;50.754;6.978;2023-04-06T00:40:41;21.10;;;13.13;;
39524;SDS011;25203;50.754;6.978;2023-04-06T00:42:44;23.30;;;13.30;;
39524;SDS011;25203;50.754;6.978;2023-04-06T00:44:44;21.90;;;14.15;;
39524;SDS011;25203;50.754;6.978;2023-04-06T00:46:45;19.50;;;12.90;;
39524;SDS011;25203;50.754;6.978;2023-04-06T00:48:46;23.75;;;13.05;;
39524;SDS011;25203;50.754;6.978;2023-04-06T00:50:46;21.88;;;13.18;;
39524;SDS011;25203;50.754;6.978;2023-04-06T00:52:47;23.02;;;13.07;;
39524;SDS011;25203;50.754;6.978;2023-04-06T00:54:48;19.23;;;13.02;;
39524;SDS011;25203;50.754;6.978;2023-04-06T00:56:49;17.92;;;12.73;;
39524;SDS011;25203;50.754;6.978;2023-04-06T00:58:50;18.95;;;12.68;;
39524;SDS011;25203;50.754;6.978;2023-04-06T01:00:51;23.08;;;13.75;;
39524;SDS011;25203;50.754;6.978;2023-04-06T01:02:52;22.77;;;13.48;;
39524;SDS011;25203;50.754;6.978;2023-04-06T01:04:53;20.17;;;13.38;;
39524;SDS011;25203;50.754;6.978;2023-04-06T01:06:54;22.88;;;13.35;;
39524;SDS011;25203;50.754;6.978;2023-04-06T01:08:55;23.88;;;12.65;;
39524;SDS011;25203;50.754;6.978;2023-04-06T01:10:55;22.48;;;13.73;;
39524;SDS011;25203;50.754;6.978;2023-04-06T01:12:56;20.85;;;12.60;;
39524;SDS011;25203;50.754;6.978;2023-04-06T01:14:57;19.83;;;13.00;;
39524;SDS011;25203;50.754;6.978;2023-04-06T01:16:58;22.70;;;12.52;;
39524;SDS011;25203;50.754;6.978;2023-04-06T01:19:00;22.60;;;14.45;;
39524;SDS011;25203;50.754;6.978;2023-04-06T01:21:01;24.75;;;14.55;;
39524;SDS011;25203;50.754;6.978;2023-04-06T01:23:02;21.33;;;14.02;;
39524;SDS011;25203;50.754;6.978;2023-04-06T01:25:02;23.63;;;13.90;;
39524;SDS011;25203;50.754;6.978;2023-04-06T01:27:03;24.23;;;13.98;;
39524;SDS011;25203;50.754;6.978;2023-04-06T01:29:04;19.75;;;13.70;;
39524;SDS011;25203;50.754;6.978;2023-04-06T01:31:08;24.63;;;13.50;;
39524;SDS011;25203;50.754;6.978;2023-04-06T01:33:09;20.77;;;13.73;;
39524;SDS011;25203;50.754;6.978;2023-04-06T01:35:10;23.05;;;13.32;;
39524;SDS011;25203;50.754;6.978;2023-04-06T01:37:11;21.67;;;13.55;;
39524;SDS011;25203;50.754;6.978;2023-04-06T01:39:11;24.52;;;13.60;;
39524;SDS011;25203;50.754;6.978;2023-04-06T01:41:12;23.27;;;13.43;;
39524;SDS011;25203;50.754;6.978;2023-04-06T01:43:12;20.42;;;13.35;;
39524;SDS011;25203;50.754;6.978;2023-04-06T01:45:13;22.23;;;13.35;;
39524;SDS011;25203;50.754;6.978;2023-04-06T01:47:14;21.65;;;13.73;;
39524;SDS011;25203;50.754;6.978;2023-04-06T01:49:15;19.27;;;12.30;;
39524;SDS011;25203;50.754;6.978;2023-04-06T01:51:15;15.70;;;10.82;;
39524;SDS011;25203;50.754;6.978;2023-04-06T01:53:16;16.52;;;10.60;;
39524;SDS011;25203;50.754;6.978;2023-04-06T01:55:16;16.45;;;11.18;;
39524;SDS011;25203;50.754;6.978;2023-04-06T01:57:17;14.00;;;10.15;;
39524;SDS011;25203;50.754;6.978;2023-04-06T01:59:18;16.30;;;10.38;;
39524;SDS011;25203;50.754;6.978;2023-04-06T02:01:18;15.73;;;10.05;;
39524;SDS011;25203;50.754;6.978;2023-04-06T02:03:19;18.35;;;10.60;;
39524;SDS011;25203;50.754;6.978;2023-04-06T02:05:20;17.75;;;10.88;;
39524;SDS011;25203;50.754;6.978;2023-04-06T02:07:20;16.73;;;11.23;;
39524;SDS011;25203;50.754;6.978;2023-04-06T02:09:21;20.65;;;10.90;;
39524;SDS011;25203;50.754;6.978;2023-04-06T02:11:21;16.73;;;10.65;;
39524;SDS011;25203;50.754;6.978;2023-04-06T02:13:22;21.05;;;11.32;;
39524;SDS011;25203;50.754;6.978;2023-04-06T02:15:23;17.05;;;11.23;;
39524;SDS011;25203;50.754;6.978;2023-04-06T02:17:23;20.95;;;11.45;;
39524;SDS011;25203;50.754;6.978;2023-04-06T02:19:24;15.23;;;11.20;;
39524;SDS011;25203;50.754;6.978;2023-04-06T02:21:24;15.95;;;10.95;;
39524;SDS011;25203;50.754;6.978;2023-04-06T02:23:25;20.80;;;11.88;;
39524;SDS011;25203;50.754;6.978;2023-04-06T02:25:26;17.17;;;10.63;;
39524;SDS011;25203;50.754;6.978;2023-04-06T02:27:27;16.17;;;10.80;;
39524;SDS011;25203;50.754;6.978;2023-04-06T02:29:28;13.88;;;9.43;;
39524;SDS011;25203;50.754;6.978;2023-04-06T02:31:29;14.77;;;9.23;;
39524;SDS011;25203;50.754;6.978;2023-04-06T02:33:29;16.48;;;9.43;;
39524;SDS011;25203;50.754;6.978;2023-04-06T02:35:30;13.10;;;9.32;;
39524;SDS011;25203;50.754;6.978;2023-04-06T02:37:31;13.07;;;9.77;;
39524;SDS011;25203;50.754;6.978;2023-04-06T02:39:32;13.63;;;9.77;;
39524;SDS011;25203;50.754;6.978;2023-04-06T02:41:32;12.38;;;8.77;;
39524;SDS011;25203;50.754;6.978;2023-04-06T02:43:33;13.57;;;9.52;;
39524;SDS011;25203;50.754;6.978;2023-04-06T02:45:33;14.95;;;10.02;;
39524;SDS011;25203;50.754;6.978;2023-04-06T02:47:34;18.52;;;9.13;;
39524;SDS011;25203;50.754;6.978;2023-04-06T02:49:35;14.20;;;9.35;;
39524;SDS011;25203;50.754;6.978;2023-04-06T02:51:36;14.73;;;9.90;;
39524;SDS011;25203;50.754;6.978;2023-04-06T02:53:36;16.75;;;10.20;;
39524;SDS011;25203;50.754;6.978;2023-04-06T02:55:37;15.07;;;11.43;;
39524;SDS011;25203;50.754;6.978;2023-04-06T02:57:37;14.57;;;9.60;;
39524;SDS011;25203;50.754;6.978;2023-04-06T02:59:38;15.88;;;10.18;;
39524;SDS011;25203;50.754;6.978;2023-04-06T03:01:39;13.13;;;9.88;;
39524;SDS011;25203;50.754;6.978;2023-04-06T03:03:39;17.05;;;11.05;;
39524;SDS011;25203;50.754;6.978;2023-04-06T03:05:40;17.35;;;9.80;;
39524;SDS011;25203;50.754;6.978;2023-04-06T03:07:40;18.05;;;10.23;;
39524;SDS011;25203;50.754;6.978;2023-04-06T03:09:41;18.55;;;10.65;;
39524;SDS011;25203;50.754;6.978;2023-04-06T03:11:42;18.42;;;11.10;;
39524;SDS011;25203;50.754;6.978;2023-04-06T03:13:43;17.00;;;10.77;;
39524;SDS011;25203;50.754;6.978;2023-04-06T03:15:44;17.05;;;9.82;;
39524;SDS011;25203;50.754;6.978;2023-04-06T03:17:45;13.52;;;9.75;;
39524;SDS011;25203;50.754;6.978;2023-04-06T03:19:46;17.85;;;10.82;;
39524;SDS011;25203;50.754;6.978;2023-04-06T03:21:46;14.85;;;10.30;;
39524;SDS011;25203;50.754;6.978;2023-04-06T03:23:47;14.82;;;10.18;;
39524;SDS011;25203;50.754;6.978;2023-04-06T03:25:50;12.48;;;8.60;;
39524;SDS011;25203;50.754;6.978;2023-04-06T03:27:51;16.10;;;10.10;;
39524;SDS011;25203;50.754;6.978;2023-04-06T03:29:51;18.10;;;9.55;;
39524;SDS011;25203;50.754;6.978;2023-04-06T03:31:53;15.07;;;9.88;;
39524;SDS011;25203;50.754;6.978;2023-04-06T03:33:54;16.67;;;10.10;;
39524;SDS011;25203;50.754;6.978;2023-04-06T03:35:55;18.25;;;11.02;;
39524;SDS011;25203;50.754;6.978;2023-04-06T03:37:55;18.00;;;11.55;;
39524;SDS011;25203;50.754;6.978;2023-04-06T03:39:56;16.77;;;10.27;;
39524;SDS011;25203;50.754;6.978;2023-04-06T03:41:56;18.17;;;11.38;;
39524;SDS011;25203;50.754;6.978;2023-04-06T03:43:57;16.35;;;10.35;;
39524;SDS011;25203;50.754;6.978;2023-04-06T03:45:57;15.38;;;11.27;;
39524;SDS011;25203;50.754;6.978;2023-04-06T03:47:58;18.15;;;11.13;;
39524;SDS011;25203;50.754;6.978;2023-04-06T03:49:59;21.00;;;11.20;;
39524;SDS011;25203;50.754;6.978;2023-04-06T03:52:00;18.30;;;11.48;;
39524;SDS011;25203;50.754;6.978;2023-04-06T03:54:01;17.65;;;12.30;;
39524;SDS011;25203;50.754;6.978;2023-04-06T03:56:01;16.42;;;10.55;;
39524;SDS011;25203;50.754;6.978;2023-04-06T03:58:02;16.67;;;11.68;;
39524;SDS011;25203;50.754;6.978;2023-04-06T04:00:03;19.25;;;11.45;;
39524;SDS011;25203;50.754;6.978;2023-04-06T04:02:04;17.10;;;11.93;;
39524;SDS011;25203;50.754;6.978;2023-04-06T04:04:05;19.15;;;11.45;;
39524;SDS011;25203;50.754;6.978;2023-04-06T04:06:05;13.95;;;10.45;;
39524;SDS011;25203;50.754;6.978;2023-04-06T04:08:06;15.20;;;10.75;;
39524;SDS011;25203;50.754;6.978;2023-04-06T04:10:07;14.75;;;10.27;;
39524;SDS011;25203;50.754;6.978;2023-04-06T04:12:08;18.65;;;11.60;;
39524;SDS011;25203;50.754;6.978;2023-04-06T04:14:08;15.40;;;10.57;;
39524;SDS011;25203;50.754;6.978;2023-04-06T04:16:09;15.30;;;10.80;;
39524;SDS011;25203;50.754;6.978;2023-04-06T04:18:10;15.35;;;10.68;;
39524;SDS011;25203;50.754;6.978;2023-04-06T04:20:10;19.52;;;12.52;;
39524;SDS011;25203;50.754;6.978;2023-04-06T04:22:11;13.98;;;10.35;;
39524;SDS011;25203;50.754;6.978;2023-04-06T04:24:12;15.40;;;9.90;;
39524;SDS011;25203;50.754;6.978;2023-04-06T04:26:13;20.60;;;11.65;;
39524;SDS011;25203;50.754;6.978;2023-04-06T04:28:13;15.68;;;10.95;;
39524;SDS011;25203;50.754;6.978;2023-04-06T04:30:14;14.60;;;9.88;;
39524;SDS011;25203;50.754;6.978;2023-04-06T04:32:15;14.98;;;11.07;;
39524;SDS011;25203;50.754;6.978;2023-04-06T04:34:16;21.98;;;10.57;;
39524;SDS011;25203;50.754;6.978;2023-04-06T04:36:18;14.18;;;9.82;;
39524;SDS011;25203;50.754;6.978;2023-04-06T04:38:18;14.57;;;10.27;;
39524;SDS011;25203;50.754;6.978;2023-04-06T04:40:19;15.07;;;10.27;;
39524;SDS011;25203;50.754;6.978;2023-04-06T04:42:20;15.45;;;10.48;;
39524;SDS011;25203;50.754;6.978;2023-04-06T04:44:21;16.08;;;10.57;;
39524;SDS011;25203;50.754;6.978;2023-04-06T04:46:22;15.45;;;10.15;;
39524;SDS011;25203;50.754;6.978;2023-04-06T04:48:23;14.95;;;10.23;;
39524;SDS011;25203;50.754;6.978;2023-04-06T04:50:23;17.63;;;10.75;;
39524;SDS011;25203;50.754;6.978;2023-04-06T04:52:24;16.63;;;10.40;;
39524;SDS011;25203;50.754;6.978;2023-04-06T04:54:25;14.52;;;10.10;;
39524;SDS011;25203;50.754;6.978;2023-04-06T04:56:25;16.40;;;10.82;;
39524;SDS011;25203;50.754;6.978;2023-04-06T04:58:27;17.63;;;10.13;;
39524;SDS011;25203;50.754;6.978;2023-04-06T05:00:28;18.98;;;11.40;;
39524;SDS011;25203;50.754;6.978;2023-04-06T05:02:28;18.42;;;10.20;;
39524;SDS011;25203;50.754;6.978;2023-04-06T05:04:29;18.02;;;11.10;;
39524;SDS011;25203;50.754;6.978;2023-04-06T05:06:30;17.42;;;11.00;;
39524;SDS011;25203;50.754;6.978;2023-04-06T05:08:31;18.02;;;10.70;;
39524;SDS011;25203;50.754;6.978;2023-04-06T05:10:31;15.13;;;11.18;;
39524;SDS011;25203;50.754;6.978;2023-04-06T05:12:32;22.40;;;11.55;;
39524;SDS011;25203;50.754;6.978;2023-04-06T05:14:33;17.60;;;10.43;;
39524;SDS011;25203;50.754;6.978;2023-04-06T05:16:33;19.48;;;10.80;;
39524;SDS011;25203;50.754;6.978;2023-04-06T05:18:34;19.67;;;9.35;;
39524;SDS011;25203;50.754;6.978;2023-04-06T05:20:35;15.32;;;10.02;;
39524;SDS011;25203;50.754;6.978;2023-04-06T05:22:36;18.10;;;9.85;;
39524;SDS011;25203;50.754;6.978;2023-04-06T05:24:37;17.85;;;10.05;;
39524;SDS011;25203;50.754;6.978;2023-04-06T05:26:37;15.55;;;10.52;;
39524;SDS011;25203;50.754;6.978;2023-04-06T05:28:38;14.23;;;9.32;;
39524;SDS011;25203;50.754;6.978;2023-04-06T05:30:39;14.93;;;10.05;;
39524;SDS011;25203;50.754;6.978;2023-04-06T05:32:40;15.40;;;9.77;;
39524;SDS011;25203;50.754;6.978;2023-04-06T05:34:42;18.15;;;11.07;;
39524;SDS011;25203;50.754;6.978;2023-04-06T05:36:43;13.68;;;9.75;;
39524;SDS011;25203;50.754;6.978;2023-04-06T05:38:43;15.35;;;10.43;;
39524;SDS011;25203;50.754;6.978;2023-04-06T05:40:44;15.90;;;10.02;;
39524;SDS011;25203;50.754;6.978;2023-04-06T05:42:45;15.20;;;10.32;;
39524;SDS011;25203;50.754;6.978;2023-04-06T05:44:46;14.23;;;10.20;;
39524;SDS011;25203;50.754;6.978;2023-04-06T05:46:47;14.30;;;9.55;;
39524;SDS011;25203;50.754;6.978;2023-04-06T05:48:48;18.38;;;10.45;;
39524;SDS011;25203;50.754;6.978;2023-04-06T05:50:49;16.80;;;10.13;;
39524;SDS011;25203;50.754;6.978;2023-04-06T05:52:53;10.77;;;8.35;;
39524;SDS011;25203;50.754;6.978;2023-04-06T05:54:53;15.90;;;10.13;;
39524;SDS011;25203;50.754;6.978;2023-04-06T05:56:54;19.40;;;10.43;;
39524;SDS011;25203;50.754;6.978;2023-04-06T05:58:55;16.73;;;10.18;;
39524;SDS011;25203;50.754;6.978;2023-04-06T06:01:01;17.95;;;11.00;;
39524;SDS011;25203;50.754;6.978;2023-04-06T06:03:03;15.13;;;9.52;;
39524;SDS011;25203;50.754;6.978;2023-04-06T06:05:04;20.13;;;10.30;;
39524;SDS011;25203;50.754;6.978;2023-04-06T06:07:05;12.70;;;9.10;;
39524;SDS011;25203;50.754;6.978;2023-04-06T06:09:05;17.38;;;10.60;;
39524;SDS011;25203;50.754;6.978;2023-04-06T06:11:06;17.75;;;9.63;;
39524;SDS011;25203;50.754;6.978;2023-04-06T06:13:06;11.52;;;9.02;;
39524;SDS011;25203;50.754;6.978;2023-04-06T06:15:07;18.20;;;9.88;;
39524;SDS011;25203;50.754;6.978;2023-04-06T06:17:08;14.00;;;9.00;;
39524;SDS011;25203;50.754;6.978;2023-04-06T06:19:09;14.88;;;10.52;;
39524;SDS011;25203;50.754;6.978;2023-04-06T06:21:10;14.38;;;9.77;;
39524;SDS011;25203;50.754;6.978;2023-04-06T06:23:12;13.25;;;9.65;;
39524;SDS011;25203;50.754;6.978;2023-04-06T06:25:12;14.05;;;9.80;;
39524;SDS011;25203;50.754;6.978;2023-04-06T06:27:13;18.27;;;10.38;;
39524;SDS011;25203;50.754;6.978;2023-04-06T06:29:14;22.35;;;10.05;;
39524;SDS011;25203;50.754;6.978;2023-04-06T06:31:14;18.27;;;9.98;;
39524;SDS011;25203;50.754;6.978;2023-04-06T06:33:16;12.68;;;8.90;;
39524;SDS011;25203;50.754;6.978;2023-04-06T06:35:17;17.58;;;9.45;;
39524;SDS011;25203;50.754;6.978;2023-04-06T06:37:18;15.30;;;9.63;;
39524;SDS011;25203;50.754;6.978;2023-04-06T06:39:18;13.32;;;9.00;;
39524;SDS011;25203;50.754;6.978;2023-04-06T06:41:19;15.77;;;9.18;;
39524;SDS011;25203;50.754;6.978;2023-04-06T06:43:20;15.00;;;9.00;;
39524;SDS011;25203;50.754;6.978;2023-04-06T06:45:21;17.35;;;9.45;;
39524;SDS011;25203;50.754;6.978;2023-04-06T06:47:21;16.17;;;8.73;;
39524;SDS011;25203;50.754;6.978;2023-04-06T06:49:22;14.55;;;9.55;;
39524;SDS011;25203;50.754;6.978;2023-04-06T06:51:23;14.25;;;9.20;;
39524;SDS011;25203;50.754;6.978;2023-04-06T06:53:23;13.02;;;9.38;;
39524;SDS011;25203;50.754;6.978;2023-04-06T06:55:24;13.27;;;7.95;;
39524;SDS011;25203;50.754;6.978;2023-04-06T06:57:27;11.50;;;7.97;;
39524;SDS011;25203;50.754;6.978;2023-04-06T06:59:27;10.90;;;7.40;;
39524;SDS011;25203;50.754;6.978;2023-04-06T07:01:28;10.77;;;7.90;;
39524;SDS011;25203;50.754;6.978;2023-04-06T07:03:29;15.18;;;8.43;;
39524;SDS011;25203;50.754;6.978;2023-04-06T07:05:29;11.10;;;8.13;;
39524;SDS011;25203;50.754;6.978;2023-04-06T07:07:31;11.23;;;8.13;;
39524;SDS011;25203;50.754;6.978;2023-04-06T07:09:33;15.73;;;8.23;;
39524;SDS011;25203;50.754;6.978;2023-04-06T07:11:34;9.75;;;7.55;;
39524;SDS011;25203;50.754;6.978;2023-04-06T07:13:34;14.27;;;8.75;;
39524;SDS011;25203;50.754;6.978;2023-04-06T07:15:35;13.55;;;7.80;;
39524;SDS011;25203;50.754;6.978;2023-04-06T07:17:37;9.52;;;7.57;;
39524;SDS011;25203;50.754;6.978;2023-04-06T07:19:37;15.45;;;8.82;;
39524;SDS011;25203;50.754;6.978;2023-04-06T07:21:38;12.55;;;8.50;;
39524;SDS011;25203;50.754;6.978;2023-04-06T07:23:38;12.23;;;8.45;;
39524;SDS011;25203;50.754;6.978;2023-04-06T07:25:39;11.40;;;8.13;;
39524;SDS011;25203;50.754;6.978;2023-04-06T07:27:40;10.98;;;7.85;;
39524;SDS011;25203;50.754;6.978;2023-04-06T07:29:41;11.98;;;8.02;;
39524;SDS011;25203;50.754;6.978;2023-04-06T07:31:42;13.85;;;8.00;;
39524;SDS011;25203;50.754;6.978;2023-04-06T07:33:42;12.93;;;9.00;;
39524;SDS011;25203;50.754;6.978;2023-04-06T07:35:43;12.95;;;8.10;;
39524;SDS011;25203;50.754;6.978;2023-04-06T07:37:43;13.00;;;8.50;;
39524;SDS011;25203;50.754;6.978;2023-04-06T07:39:44;11.10;;;8.48;;
39524;SDS011;25203;50.754;6.978;2023-04-06T07:41:45;9.68;;;7.13;;
39524;SDS011;25203;50.754;6.978;2023-04-06T07:43:45;10.68;;;8.23;;
39524;SDS011;25203;50.754;6.978;2023-04-06T07:45:46;11.40;;;8.65;;
39524;SDS011;25203;50.754;6.978;2023-04-06T07:47:47;10.68;;;8.48;;
39524;SDS011;25203;50.754;6.978;2023-04-06T07:49:47;9.82;;;7.82;;
39524;SDS011;25203;50.754;6.978;2023-04-06T07:51:48;15.25;;;8.20;;
39524;SDS011;25203;50.754;6.978;2023-04-06T07:53:50;14.27;;;9.00;;
39524;SDS011;25203;50.754;6.978;2023-04-06T07:55:50;11.02;;;8.70;;
39524;SDS011;25203;50.754;6.978;2023-04-06T07:57:51;10.43;;;7.70;;
39524;SDS011;25203;50.754;6.978;2023-04-06T07:59:52;11.77;;;9.02;;
39524;SDS011;25203;50.754;6.978;2023-04-06T08:01:52;13.93;;;8.70;;
39524;SDS011;25203;50.754;6.978;2023-04-06T08:03:53;13.88;;;9.00;;
39524;SDS011;25203;50.754;6.978;2023-04-06T08:05:55;12.07;;;8.30;;
39524;SDS011;25203;50.754;6.978;2023-04-06T08:07:56;13.20;;;9.18;;
39524;SDS011;25203;50.754;6.978;2023-04-06T08:09:56;11.45;;;8.73;;
39524;SDS011;25203;50.754;6.978;2023-04-06T08:11:57;12.02;;;8.68;;
39524;SDS011;25203;50.754;6.978;2023-04-06T08:13:58;9.02;;;7.97;;
39524;SDS011;25203;50.754;6.978;2023-04-06T08:15:59;9.63;;;7.40;;
39524;SDS011;25203;50.754;6.978;2023-04-06T08:18:00;10.95;;;9.20;;
39524;SDS011;25203;50.754;6.978;2023-04-06T08:20:00;12.93;;;9.02;;
39524;SDS011;25203;50.754;6.978;2023-04-06T08:22:03;12.07;;;9.65;;
39524;SDS011;25203;50.754;6.978;2023-04-06T08:24:04;12.45;;;8.55;;
39524;SDS011;25203;50.754;6.978;2023-04-06T08:26:05;12.60;;;9.32;;
39524;SDS011;25203;50.754;6.978;2023-04-06T08:28:06;9.60;;;8.32;;
39524;SDS011;25203;50.754;6.978;2023-04-06T08:30:07;11.35;;;8.88;;
39524;SDS011;25203;50.754;6.978;2023-04-06T08:32:08;12.23;;;8.30;;
39524;SDS011;25203;50.754;6.978;2023-04-06T08:34:08;13.70;;;9.38;;
39524;SDS011;25203;50.754;6.978;2023-04-06T08:36:09;12.27;;;9.07;;
39524;SDS011;25203;50.754;6.978;2023-04-06T08:38:14;13.68;;;8.77;;
39524;SDS011;25203;50.754;6.978;2023-04-06T08:40:15;11.88;;;9.40;;
39524;SDS011;25203;50.754;6.978;2023-04-06T08:42:19;13.07;;;9.20;;
39524;SDS011;25203;50.754;6.978;2023-04-06T08:44:21;12.50;;;9.10;;
39524;SDS011;25203;50.754;6.978;2023-04-06T08:46:21;14.02;;;9.23;;
39524;SDS011;25203;50.754;6.978;2023-04-06T08:48:28;15.23;;;9.68;;
39524;SDS011;25203;50.754;6.978;2023-04-06T08:50:29;14.85;;;10.25;;
39524;SDS011;25203;50.754;6.978;2023-04-06T08:52:31;14.65;;;10.40;;
39524;SDS011;25203;50.754;6.978;2023-04-06T08:54:34;11.85;;;9.88;;
39524;SDS011;25203;50.754;6.978;2023-04-06T08:56:37;10.70;;;8.35;;
39524;SDS011;25203;50.754;6.978;2023-04-06T08:58:39;16.85;;;12.00;;
39524;SDS011;25203;50.754;6.978;2023-04-06T09:00:40;16.30;;;11.15;;
39524;SDS011;25203;50.754;6.978;2023-04-06T09:02:42;15.25;;;11.13;;
39524;SDS011;25203;50.754;6.978;2023-04-06T09:04:48;16.25;;;9.80;;
39524;SDS011;25203;50.754;6.978;2023-04-06T09:06:52;16.33;;;9.95;;
39524;SDS011;25203;50.754;6.978;2023-04-06T09:08:53;15.82;;;10.05;;
39524;SDS011;25203;50.754;6.978;2023-04-06T09:10:54;14.13;;;10.52;;
39524;SDS011;25203;50.754;6.978;2023-04-06T09:13:05;22.05;;;11.80;;
39524;SDS011;25203;50.754;6.978;2023-04-06T09:15:06;19.45;;;12.50;;
39524;SDS011;25203;50.754;6.978;2023-04-06T09:17:21;19.63;;;12.15;;
39524;SDS011;25203;50.754;6.978;2023-04-06T09:19:22;16.00;;;11.63;;
39524;SDS011;25203;50.754;6.978;2023-04-06T09:21:22;20.73;;;12.27;;
39524;SDS011;25203;50.754;6.978;2023-04-06T09:23:23;18.70;;;11.85;;
39524;SDS011;25203;50.754;6.978;2023-04-06T09:25:24;19.17;;;11.82;;
39524;SDS011;25203;50.754;6.978;2023-04-06T09:27:31;19.05;;;11.45;;
39524;SDS011;25203;50.754;6.978;2023-04-06T09:29:32;18.13;;;11.25;;
39524;SDS011;25203;50.754;6.978;2023-04-06T09:31:33;20.10;;;12.25;;
39524;SDS011;25203;50.754;6.978;2023-04-06T09:33:34;17.02;;;11.25;;
39524;SDS011;25203;50.754;6.978;2023-04-06T09:35:38;18.65;;;11.93;;
39524;SDS011;25203;50.754;6.978;2023-04-06T09:37:39;16.00;;;11.07;;
39524;SDS011;25203;50.754;6.978;2023-04-06T09:39:40;18.35;;;11.68;;
39524;SDS011;25203;50.754;6.978;2023-04-06T09:41:41;15.75;;;11.38;;
39524;SDS011;25203;50.754;6.978;2023-04-06T09:43:41;16.13;;;11.85;;
39524;SDS011;25203;50.754;6.978;2023-04-06T09:45:42;16.02;;;11.77;;
39524;SDS011;25203;50.754;6.978;2023-04-06T09:47:43;16.73;;;11.73;;
39524;SDS011;25203;50.754;6.978;2023-04-06T09:49:45;18.33;;;12.52;;
39524;SDS011;25203;50.754;6.978;2023-04-06T09:51:53;16.23;;;11.23;;
39524;SDS011;25203;50.754;6.978;2023-04-06T09:53:57;15.07;;;11.13;;
39524;SDS011;25203;50.754;6.978;2023-04-06T09:56:03;19.05;;;12.52;;
39524;SDS011;25203;50.754;6.978;2023-04-06T09:58:09;18.73;;;11.95;;
39524;SDS011;25203;50.754;6.978;2023-04-06T10:00:20;16.90;;;11.52;;
39524;SDS011;25203;50.754;6.978;2023-04-06T10:05:13;18.77;;;12.45;;
39524;SDS011;25203;50.754;6.978;2023-04-06T10:07:27;18.45;;;12.20;;
39524;SDS011;25203;50.754;6.978;2023-04-06T10:09:29;17.95;;;11.90;;
39524;SDS011;25203;50.754;6.978;2023-04-06T10:11:35;18.83;;;12.20;;
39524;SDS011;25203;50.754;6.978;2023-04-06T10:13:36;22.15;;;12.75;;
39524;SDS011;25203;50.754;6.978;2023-04-06T10:15:40;16.90;;;11.50;;
39524;SDS011;25203;50.754;6.978;2023-04-06T10:17:43;17.85;;;12.18;;
39524;SDS011;25203;50.754;6.978;2023-04-06T10:19:46;19.42;;;12.38;;
39524;SDS011;25203;50.754;6.978;2023-04-06T10:21:54;20.02;;;12.55;;
39524;SDS011;25203;50.754;6.978;2023-04-06T10:24:01;19.63;;;12.73;;
39524;SDS011;25203;50.754;6.978;2023-04-06T10:26:11;19.13;;;11.73;;
39524;SDS011;25203;50.754;6.978;2023-04-06T10:28:16;19.88;;;11.50;;
39524;SDS011;25203;50.754;6.978;2023-04-06T10:30:19;19.27;;;12.93;;
39524;SDS011;25203;50.754;6.978;2023-04-06T10:32:20;20.60;;;13.23;;
39524;SDS011;25203;50.754;6.978;2023-04-06T10:34:35;16.85;;;11.55;;
39524;SDS011;25203;50.754;6.978;2023-04-06T10:36:36;16.98;;;12.30;;
39524;SDS011;25203;50.754;6.978;2023-04-06T10:38:37;18.42;;;11.60;;
39524;SDS011;25203;50.754;6.978;2023-04-06T10:40:39;23.02;;;12.30;;
39524;SDS011;25203;50.754;6.978;2023-04-06T10:42:42;19.40;;;13.27;;
39524;SDS011;25203;50.754;6.978;2023-04-06T10:44:43;21.33;;;12.40;;
39524;SDS011;25203;50.754;6.978;2023-04-06T10:46:53;23.85;;;12.95;;
39524;SDS011;25203;50.754;6.978;2023-04-06T10:49:10;22.73;;;12.38;;
39524;SDS011;25203;50.754;6.978;2023-04-06T10:51:15;19.38;;;12.90;;
39524;SDS011;25203;50.754;6.978;2023-04-06T10:53:21;21.02;;;12.52;;
39524;SDS011;25203;50.754;6.978;2023-04-06T10:55:22;21.00;;;13.35;;
39524;SDS011;25203;50.754;6.978;2023-04-06T10:57:28;22.30;;;13.23;;
39524;SDS011;25203;50.754;6.978;2023-04-06T10:59:29;20.50;;;12.95;;
39524;SDS011;25203;50.754;6.978;2023-04-06T11:01:29;18.98;;;13.07;;
39524;SDS011;25203;50.754;6.978;2023-04-06T11:03:30;21.38;;;13.25;;
39524;SDS011;25203;50.754;6.978;2023-04-06T11:05:32;18.13;;;12.20;;
39524;SDS011;25203;50.754;6.978;2023-04-06T11:07:32;20.23;;;12.98;;
39524;SDS011;25203;50.754;6.978;2023-04-06T11:09:33;21.42;;;13.13;;
39524;SDS011;25203;50.754;6.978;2023-04-06T11:11:38;21.67;;;13.00;;
39524;SDS011;25203;50.754;6.978;2023-04-06T11:13:40;20.15;;;13.65;;
39524;SDS011;25203;50.754;6.978;2023-04-06T11:15:42;22.02;;;12.55;;
39524;SDS011;25203;50.754;6.978;2023-04-06T11:17:43;21.77;;;13.52;;
39524;SDS011;25203;50.754;6.978;2023-04-06T11:19:44;20.10;;;13.02;;
39524;SDS011;25203;50.754;6.978;2023-04-06T11:21:46;20.38;;;13.05;;
39524;SDS011;25203;50.754;6.978;2023-04-06T11:23:47;22.00;;;13.88;;
39524;SDS011;25203;50.754;6.978;2023-04-06T11:25:52;20.38;;;13.60;;
39524;SDS011;25203;50.754;6.978;2023-04-06T11:27:52;23.25;;;12.63;;
39524;SDS011;25203;50.754;6.978;2023-04-06T11:29:53;17.35;;;12.00;;
39524;SDS011;25203;50.754;6.978;2023-04-06T11:31:58;20.42;;;13.30;;
39524;SDS011;25203;50.754;6.978;2023-04-06T11:34:00;19.73;;;12.73;;
39524;SDS011;25203;50.754;6.978;2023-04-06T11:36:02;15.98;;;11.90;;
39524;SDS011;25203;50.754;6.978;2023-04-06T11:38:03;18.33;;;12.25;;
39524;SDS011;25203;50.754;6.978;2023-04-06T11:40:04;19.10;;;12.20;;
39524;SDS011;25203;50.754;6.978;2023-04-06T11:42:08;18.17;;;11.95;;
39524;SDS011;25203;50.754;6.978;2023-04-06T11:44:09;17.42;;;12.65;;
39524;SDS011;25203;50.754;6.978;2023-04-06T11:46:10;22.15;;;12.95;;
39524;SDS011;25203;50.754;6.978;2023-04-06T11:48:18;23.02;;;12.95;;
39524;SDS011;25203;50.754;6.978;2023-04-06T11:50:20;18.00;;;12.38;;
39524;SDS011;25203;50.754;6.978;2023-04-06T11:52:22;19.23;;;11.85;;
39524;SDS011;25203;50.754;6.978;2023-04-06T11:54:33;18.38;;;11.65;;
39524;SDS011;25203;50.754;6.978;2023-04-06T11:56:35;16.33;;;10.32;;